Time;durP1;ratioP1;P1;durP2;ratioP2;P2;SDS_P1;SDS_P2;PMS_P1;PMS_P2;Temp;Humidity;BMP_temperature;BMP_pressure;BME280_temperature;BME280_humidity;BME280_pressure;Samples;Min_cycle;Max_cycle;Signal;HPM_P1;HPM_P2
2021/01/08 00:00:25;;;;;;;18.52;9.63;;;-0.60;99.90;;;;;;5044684;28;20096;-82
2021/01/08 00:02:51;;;;;;;18.67;11.80;;;-0.70;99.90;;;;;;5048324;28;20465;-83
2021/01/08 00:05:16;;;;;;;18.90;11.07;;;-0.70;99.90;;;;;;5045525;28;20543;-82
2021/01/08 00:07:42;;;;;;;19.38;11.40;;;-0.70;99.90;;;;;;5065237;28;20088;-83
2021/01/08 00:10:09;;;;;;;21.33;11.05;;;-0.70;99.90;;;;;;5065691;28;20081;-83
2021/01/08 00:12:36;;;;;;;19.83;10.65;;;-0.80;99.90;;;;;;5048532;28;20073;-83
2021/01/08 00:15:03;;;;;;;22.23;11.32;;;-0.80;99.90;;;;;;5069293;28;20176;-83
2021/01/08 00:17:32;;;;;;;20.10;10.95;;;-0.80;99.90;;;;;;5051200;28;20352;-82
2021/01/08 00:19:58;;;;;;;19.40;10.30;;;-0.80;99.90;;;;;;5051559;28;20088;-82
2021/01/08 00:22:24;;;;;;;20.88;10.93;;;-0.90;99.90;;;;;;5047055;28;20107;-83
2021/01/08 00:24:50;;;;;;;16.15;10.20;;;-0.90;99.90;;;;;;5048670;28;552531;-83
2021/01/08 00:27:16;;;;;;;21.50;11.48;;;-0.90;99.90;;;;;;5069945;28;20174;-83
2021/01/08 00:29:41;;;;;;;17.50;10.02;;;-0.80;99.90;;;;;;5052095;28;20168;-83
2021/01/08 00:32:11;;;;;;;18.80;10.30;;;-0.70;99.90;;;;;;5042617;28;20080;-83
2021/01/08 00:34:37;;;;;;;19.02;10.77;;;-0.40;99.90;;;;;;5046458;28;20131;-83
2021/01/08 00:37:04;;;;;;;19.00;11.43;;;-0.10;99.90;;;;;;5050258;28;20112;-83
2021/01/08 00:39:29;;;;;;;19.58;11.23;;;0.10;99.90;;;;;;5069250;28;20147;-83
2021/01/08 00:41:55;;;;;;;19.40;11.48;;;0.30;99.90;;;;;;5050653;28;20085;-83
2021/01/08 00:44:20;;;;;;;18.92;10.05;;;0.20;99.90;;;;;;5052994;28;20077;-84
2021/01/08 00:46:48;;;;;;;16.60;10.60;;;-0.10;99.90;;;;;;5054292;28;20539;-83
2021/01/08 00:49:15;;;;;;;19.50;10.05;;;0.20;99.90;;;;;;5046559;28;20529;-83
2021/01/08 00:51:41;;;;;;;19.48;9.98;;;0.20;99.90;;;;;;5049957;28;20170;-83
2021/01/08 00:54:08;;;;;;;18.38;10.75;;;0.00;99.90;;;;;;5053262;28;20113;-83
2021/01/08 00:56:34;;;;;;;16.50;9.98;;;-0.10;99.90;;;;;;5048361;28;20096;-84
2021/01/08 00:59:00;;;;;;;19.42;10.90;;;-0.20;99.90;;;;;;5051637;28;20172;-83
2021/01/08 01:01:26;;;;;;;20.40;10.70;;;0.00;99.90;;;;;;5065278;28;20155;-83
2021/01/08 01:03:51;;;;;;;19.08;11.43;;;-0.10;99.90;;;;;;5066870;28;20127;-83
2021/01/08 01:06:28;;;;;;;20.20;10.60;;;-0.20;99.90;;;;;;5047575;28;20089;-83
2021/01/08 01:08:55;;;;;;;18.50;10.88;;;-0.40;99.90;;;;;;5044538;28;20084;-83
2021/01/08 01:11:22;;;;;;;18.73;10.50;;;-0.50;99.90;;;;;;5053886;28;20073;-84
2021/01/08 01:13:50;;;;;;;17.58;10.27;;;-0.40;99.90;;;;;;5057975;28;20093;-83
2021/01/08 01:16:16;;;;;;;17.17;10.25;;;-0.30;99.90;;;;;;5056507;28;20093;-83
2021/01/08 01:18:43;;;;;;;18.40;11.05;;;-0.20;99.90;;;;;;5052816;28;20077;-83
2021/01/08 01:21:09;;;;;;;19.23;10.13;;;-0.20;99.90;;;;;;5049936;28;20083;-83
2021/01/08 01:23:35;;;;;;;20.80;10.93;;;-0.20;99.90;;;;;;5072836;28;20088;-84
2021/01/08 01:26:01;;;;;;;18.70;10.18;;;-0.30;99.90;;;;;;5073513;28;20109;-83
2021/01/08 01:28:26;;;;;;;17.92;10.80;;;-0.30;99.90;;;;;;5048145;28;20435;-83
2021/01/08 01:30:52;;;;;;;22.83;12.30;;;-0.30;99.90;;;;;;5052515;28;20077;-83
2021/01/08 01:33:18;;;;;;;23.60;12.38;;;-0.30;99.90;;;;;;5071414;28;20129;-83
2021/01/08 01:35:43;;;;;;;21.25;10.98;;;-0.30;99.90;;;;;;5053521;28;20093;-83
2021/01/08 01:38:09;;;;;;;20.17;11.07;;;-0.30;99.90;;;;;;5052603;28;20175;-83
2021/01/08 01:40:34;;;;;;;18.95;10.52;;;-0.20;99.90;;;;;;5051726;28;20070;-84
2021/01/08 01:43:00;;;;;;;18.63;10.60;;;-0.20;99.90;;;;;;5054932;28;20077;-84
2021/01/08 01:45:26;;;;;;;18.35;10.35;;;-0.20;99.90;;;;;;5047807;28;20089;-83
2021/01/08 01:47:51;;;;;;;18.90;10.70;;;-0.20;99.90;;;;;;5053535;28;20089;-83
2021/01/08 01:50:17;;;;;;;15.30;9.45;;;-0.20;99.90;;;;;;5051918;28;20211;-83
2021/01/08 01:52:43;;;;;;;20.35;10.65;;;-0.10;99.90;;;;;;5052342;28;20222;-83
2021/01/08 01:55:12;;;;;;;17.17;9.73;;;-0.20;99.90;;;;;;5051912;28;20184;-83
2021/01/08 01:57:37;;;;;;;20.38;10.68;;;-0.10;99.90;;;;;;5071742;28;20560;-83
2021/01/08 02:00:04;;;;;;;19.83;11.05;;;0.00;99.90;;;;;;5057848;28;20072;-83
2021/01/08 02:02:53;;;;;;;21.90;12.20;;;-0.10;99.90;;;;;;5057303;28;20069;-83
2021/01/08 02:05:20;;;;;;;20.02;11.40;;;-0.20;99.90;;;;;;5047698;28;20117;-83
2021/01/08 02:07:57;;;;;;;20.63;11.02;;;-0.10;99.90;;;;;;5054236;28;20544;-83
2021/01/08 02:10:25;;;;;;;20.40;11.88;;;-0.10;99.90;;;;;;5050142;28;20487;-83
2021/01/08 02:12:52;;;;;;;21.25;12.00;;;-0.10;99.90;;;;;;5065512;28;21591;-83
2021/01/08 02:15:20;;;;;;;21.63;11.73;;;0.00;99.90;;;;;;5049071;28;20089;-82
2021/01/08 02:17:47;;;;;;;18.77;10.80;;;-0.10;99.90;;;;;;5054978;28;20073;-83
2021/01/08 02:20:13;;;;;;;19.95;10.25;;;-0.20;99.90;;;;;;5053917;28;20084;-83
2021/01/08 02:23:06;;;;;;;19.60;11.52;;;-0.20;99.90;;;;;;5049950;28;20611;-82
2021/01/08 02:25:32;;;;;;;19.52;11.35;;;-0.20;99.90;;;;;;5049683;28;20097;-83
2021/01/08 02:28:04;;;;;;;19.08;11.45;;;-0.20;99.90;;;;;;5053246;28;20080;-84
2021/01/08 02:30:33;;;;;;;17.73;10.55;;;-0.10;99.90;;;;;;5058416;28;20081;-83
2021/01/08 02:32:59;;;;;;;18.58;10.57;;;0.00;99.90;;;;;;5051130;28;20105;-83
2021/01/08 02:35:25;;;;;;;20.42;10.93;;;0.00;99.90;;;;;;5046181;28;20088;-83
2021/01/08 02:37:51;;;;;;;19.27;10.90;;;0.00;99.90;;;;;;5049480;28;20079;-83
2021/01/08 02:40:17;;;;;;;18.33;11.35;;;0.00;99.90;;;;;;5051591;28;20081;-83
2021/01/08 02:42:45;;;;;;;19.98;10.43;;;0.20;99.90;;;;;;5049665;28;20085;-83
2021/01/08 02:45:12;;;;;;;22.25;11.75;;;0.20;99.90;;;;;;5064947;28;20115;-83
2021/01/08 02:47:38;;;;;;;19.10;10.98;;;0.20;99.90;;;;;;5056245;28;20551;-83
2021/01/08 02:50:04;;;;;;;18.73;10.45;;;0.30;99.90;;;;;;5053627;28;20097;-84
2021/01/08 02:52:33;;;;;;;18.70;11.25;;;0.30;99.90;;;;;;5074242;28;20565;-83
2021/01/08 02:55:02;;;;;;;17.60;9.88;;;0.20;99.90;;;;;;5048199;28;20125;-83
2021/01/08 02:57:28;;;;;;;15.68;10.18;;;0.10;99.90;;;;;;5044877;28;20078;-83
2021/01/08 02:59:56;;;;;;;20.20;10.77;;;-0.10;99.90;;;;;;5046871;28;20073;-83
2021/01/08 03:02:23;;;;;;;19.25;11.63;;;-0.10;99.90;;;;;;5053864;28;20532;-83
2021/01/08 03:04:49;;;;;;;16.45;9.27;;;0.10;99.90;;;;;;5049948;28;20081;-83
2021/01/08 03:07:23;;;;;;;19.00;11.23;;;0.40;99.90;;;;;;5067586;28;20083;-84
2021/01/08 03:09:49;;;;;;;19.67;10.43;;;0.50;99.90;;;;;;5053593;28;20088;-83
2021/01/08 03:12:16;;;;;;;18.42;10.18;;;0.50;99.90;;;;;;5045718;28;20115;-82
2021/01/08 03:14:45;;;;;;;19.30;11.27;;;0.20;99.90;;;;;;5072806;28;20552;-82
2021/01/08 03:17:11;;;;;;;18.00;10.43;;;0.40;99.90;;;;;;5071880;28;20073;-83
2021/01/08 03:19:38;;;;;;;16.98;9.40;;;0.50;99.90;;;;;;5050456;28;20069;-83
2021/01/08 03:22:03;;;;;;;17.05;10.00;;;0.50;99.90;;;;;;5064390;28;20077;-82
2021/01/08 03:24:29;;;;;;;18.67;10.65;;;0.30;99.90;;;;;;5064219;28;20156;-83
2021/01/08 03:26:55;;;;;;;18.90;10.60;;;0.20;99.90;;;;;;5047673;28;20097;-83
2021/01/08 03:29:20;;;;;;;18.73;10.27;;;0.20;99.90;;;;;;5049653;28;20092;-84
2021/01/08 03:31:46;;;;;;;16.02;9.35;;;0.20;99.90;;;;;;5053892;28;20543;-83
2021/01/08 03:34:11;;;;;;;16.25;9.55;;;0.20;99.90;;;;;;5067768;28;20097;-83
2021/01/08 03:36:37;;;;;;;20.55;11.15;;;0.20;99.90;;;;;;5050156;28;20582;-83
2021/01/08 03:39:03;;;;;;;18.20;10.07;;;0.20;99.90;;;;;;5047687;28;20416;-83
2021/01/08 03:41:29;;;;;;;17.40;9.73;;;0.30;99.90;;;;;;5050519;28;20482;-83
2021/01/08 03:43:54;;;;;;;20.52;10.00;;;0.20;99.90;;;;;;5046518;28;20081;-82
2021/01/08 03:46:20;;;;;;;19.33;10.60;;;0.40;99.90;;;;;;5047145;28;20602;-83
2021/01/08 03:48:45;;;;;;;18.17;10.55;;;0.30;99.90;;;;;;5067072;28;20083;-84
2021/01/08 03:51:11;;;;;;;18.65;10.90;;;0.30;99.90;;;;;;5048611;28;20430;-83
2021/01/08 03:53:37;;;;;;;17.50;10.40;;;0.20;99.90;;;;;;5067382;28;20194;-84
2021/01/08 03:56:02;;;;;;;18.40;9.88;;;0.10;99.90;;;;;;5050183;28;20092;-83
2021/01/08 03:58:28;;;;;;;18.92;10.25;;;0.10;99.90;;;;;;5051796;28;20072;-84
2021/01/08 04:00:54;;;;;;;17.15;9.27;;;0.00;99.90;;;;;;5050231;28;20094;-83
2021/01/08 04:03:19;;;;;;;15.93;9.55;;;0.20;99.90;;;;;;5049371;28;20080;-83
2021/01/08 04:05:45;;;;;;;17.00;10.02;;;0.10;99.90;;;;;;5048346;28;20097;-83
2021/01/08 04:08:10;;;;;;;18.10;10.75;;;0.10;99.90;;;;;;5049047;28;20112;-83
2021/01/08 04:10:36;;;;;;;19.52;10.25;;;0.10;99.90;;;;;;5070239;28;20110;-83
2021/01/08 04:13:01;;;;;;;15.57;9.75;;;0.10;99.90;;;;;;5051093;28;20069;-83
2021/01/08 04:15:27;;;;;;;15.80;9.30;;;0.10;99.90;;;;;;5067903;28;20089;-82
2021/01/08 04:17:53;;;;;;;15.48;9.32;;;0.20;99.90;;;;;;5052532;28;20077;-83
2021/01/08 04:20:18;;;;;;;14.80;8.68;;;0.10;99.90;;;;;;5052383;28;20101;-83
2021/01/08 04:22:44;;;;;;;16.40;9.93;;;0.20;99.90;;;;;;5044549;28;20078;-83
2021/01/08 04:25:10;;;;;;;18.08;10.32;;;0.10;99.90;;;;;;5068994;28;20097;-83
2021/01/08 04:27:36;;;;;;;17.35;10.10;;;0.20;99.90;;;;;;5046881;28;20078;-83
2021/01/08 04:30:03;;;;;;;15.02;9.18;;;0.20;99.90;;;;;;5049016;28;20123;-82
2021/01/08 04:32:28;;;;;;;16.52;9.38;;;0.30;99.90;;;;;;5046448;28;20558;-83
2021/01/08 04:34:54;;;;;;;21.52;9.48;;;0.30;99.90;;;;;;5051096;28;20091;-83
2021/01/08 04:37:19;;;;;;;16.48;9.27;;;0.20;99.90;;;;;;5051057;28;20520;-83
2021/01/08 04:39:46;;;;;;;15.68;9.02;;;0.00;99.90;;;;;;5067095;28;20081;-83
2021/01/08 04:42:13;;;;;;;20.75;10.70;;;0.00;99.90;;;;;;5062053;28;20428;-83
2021/01/08 04:44:39;;;;;;;16.63;9.52;;;0.10;99.90;;;;;;5049306;28;20080;-84
2021/01/08 04:47:06;;;;;;;15.82;9.10;;;0.00;99.90;;;;;;5049744;28;20080;-83
2021/01/08 04:49:33;;;;;;;14.77;8.05;;;0.10;99.90;;;;;;5050736;28;20547;-83
2021/01/08 04:51:59;;;;;;;18.40;10.57;;;0.10;99.90;;;;;;5053572;28;20306;-83
2021/01/08 04:54:25;;;;;;;16.90;9.82;;;0.20;99.90;;;;;;5051783;28;20463;-83
2021/01/08 04:56:55;;;;;;;17.52;10.73;;;0.30;99.90;;;;;;5046058;28;20104;-83
2021/01/08 04:59:23;;;;;;;22.20;12.43;;;0.40;99.90;;;;;;5046313;28;20073;-82
2021/01/08 05:01:49;;;;;;;19.90;12.43;;;0.30;99.90;;;;;;5053347;28;20211;-83
2021/01/08 05:04:15;;;;;;;21.23;10.95;;;0.20;99.90;;;;;;5047003;28;20176;-83
2021/01/08 05:06:41;;;;;;;17.02;9.93;;;0.00;99.90;;;;;;5050946;28;20093;-83
2021/01/08 05:09:06;;;;;;;16.90;9.73;;;0.20;99.90;;;;;;5049763;28;20163;-83
2021/01/08 05:11:32;;;;;;;15.48;9.55;;;0.10;99.90;;;;;;5049812;28;20097;-84
2021/01/08 05:14:00;;;;;;;16.73;10.52;;;0.10;99.90;;;;;;5066998;28;20089;-83
2021/01/08 05:16:29;;;;;;;18.88;9.57;;;0.10;99.90;;;;;;5060748;28;20093;-83
2021/01/08 05:18:56;;;;;;;16.08;9.85;;;0.10;99.90;;;;;;5053679;28;20080;-84
2021/01/08 05:21:24;;;;;;;15.45;9.23;;;0.10;99.90;;;;;;5050330;28;20104;-83
2021/01/08 05:23:50;;;;;;;14.32;8.73;;;0.00;99.90;;;;;;5066884;28;20524;-84
2021/01/08 05:26:16;;;;;;;14.70;9.63;;;0.10;99.90;;;;;;5052431;28;20097;-84
2021/01/08 05:28:56;;;;;;;17.35;9.50;;;0.30;99.90;;;;;;5052896;28;20089;-84
2021/01/08 05:31:33;;;;;;;15.40;9.27;;;0.30;99.90;;;;;;5069108;28;20076;-83
2021/01/08 05:34:00;;;;;;;16.15;9.27;;;0.30;99.90;;;;;;5047448;28;20096;-83
2021/01/08 05:36:26;;;;;;;16.92;9.82;;;0.10;99.90;;;;;;5054123;28;20091;-83
2021/01/08 05:38:54;;;;;;;17.85;10.02;;;0.10;99.90;;;;;;5051862;28;20104;-83
2021/01/08 05:41:22;;;;;;;17.80;9.93;;;0.00;99.90;;;;;;5048733;28;20152;-83
2021/01/08 05:43:48;;;;;;;16.67;9.57;;;-0.10;99.90;;;;;;5050688;28;20108;-83
2021/01/08 05:46:19;;;;;;;17.77;10.30;;;-0.20;99.90;;;;;;5054864;28;20097;-82
2021/01/08 05:48:50;;;;;;;16.42;9.82;;;-0.30;99.90;;;;;;5060024;28;20085;-82
2021/01/08 05:51:22;;;;;;;22.52;10.50;;;-0.40;99.90;;;;;;5063313;28;20087;-83
2021/01/08 05:53:52;;;;;;;17.70;11.00;;;-0.40;99.90;;;;;;5059300;28;20093;-82
2021/01/08 05:56:22;;;;;;;15.18;9.75;;;-0.30;99.90;;;;;;5067724;28;20093;-82
2021/01/08 05:58:49;;;;;;;18.05;9.68;;;-0.30;99.90;;;;;;5062859;28;20072;-82
2021/01/08 06:01:16;;;;;;;16.27;9.20;;;-0.30;99.90;;;;;;5066567;28;20069;-82
2021/01/08 06:03:44;;;;;;;17.00;9.73;;;-0.20;99.90;;;;;;5062670;28;20115;-83
2021/01/08 06:06:11;;;;;;;14.88;9.02;;;-0.30;99.90;;;;;;5060000;28;20124;-82
2021/01/08 06:08:45;;;;;;;16.50;9.48;;;-0.30;99.90;;;;;;5061076;28;20629;-83
2021/01/08 06:11:30;;;;;;;16.70;9.85;;;-0.20;99.90;;;;;;5059939;28;20107;-82
2021/01/08 06:14:01;;;;;;;15.68;8.32;;;-0.30;99.90;;;;;;5059733;28;20574;-83
2021/01/08 06:16:35;;;;;;;15.45;8.48;;;-0.30;99.90;;;;;;5062146;28;20105;-83
2021/01/08 06:19:01;;;;;;;16.80;9.13;;;-0.30;99.90;;;;;;5066814;28;20146;-82
2021/01/08 06:21:44;;;;;;;18.20;8.23;;;-0.20;99.90;;;;;;5058995;28;20077;-84
2021/01/08 06:24:22;;;;;;;18.52;9.18;;;-0.30;99.90;;;;;;5076803;28;20343;-82
2021/01/08 06:26:49;;;;;;;15.75;9.35;;;-0.30;99.90;;;;;;5067303;28;20100;-82
2021/01/08 06:29:22;;;;;;;15.68;8.75;;;-0.20;99.90;;;;;;5059489;28;20092;-83
2021/01/08 06:31:56;;;;;;;16.60;9.07;;;-0.30;99.90;;;;;;5082173;28;20065;-82
2021/01/08 06:34:25;;;;;;;13.82;8.57;;;-0.30;99.90;;;;;;5058837;28;20431;-82
2021/01/08 06:37:14;;;;;;;17.40;9.45;;;-0.30;99.90;;;;;;5051359;28;21591;-82
2021/01/08 06:39:42;;;;;;;15.13;9.95;;;-0.20;99.90;;;;;;5057780;28;20111;-82
2021/01/08 06:42:09;;;;;;;14.68;9.38;;;-0.10;99.90;;;;;;5054290;28;20077;-82
2021/01/08 06:44:35;;;;;;;19.10;9.85;;;-0.20;99.90;;;;;;5060187;28;20562;-82
2021/01/08 06:47:02;;;;;;;14.85;8.77;;;-0.10;99.90;;;;;;5060327;28;20104;-82
2021/01/08 06:49:33;;;;;;;16.58;9.57;;;-0.20;99.90;;;;;;5064763;28;20163;-82
2021/01/08 06:52:03;;;;;;;15.55;9.18;;;-0.20;99.90;;;;;;5059799;28;20447;-82
2021/01/08 06:54:29;;;;;;;21.02;11.50;;;-0.30;99.90;;;;;;5060145;28;20085;-82
2021/01/08 06:57:00;;;;;;;16.42;9.10;;;-0.30;99.90;;;;;;5059922;28;20485;-82
2021/01/08 06:59:32;;;;;;;18.95;10.43;;;-0.30;99.90;;;;;;5057863;28;20109;-83
2021/01/08 07:02:09;;;;;;;19.83;11.38;;;-0.30;99.90;;;;;;5053164;28;20075;-82
2021/01/08 07:04:38;;;;;;;18.80;10.95;;;-0.30;99.90;;;;;;5060075;28;20118;-82
2021/01/08 07:07:05;;;;;;;18.00;9.90;;;-0.20;99.90;;;;;;5059054;28;20073;-82
2021/01/08 07:09:35;;;;;;;17.77;9.38;;;-0.20;99.90;;;;;;5051194;28;20104;-83
2021/01/08 07:12:02;;;;;;;15.38;9.07;;;-0.30;99.90;;;;;;5072818;28;20077;-83
2021/01/08 07:14:28;;;;;;;17.65;8.98;;;-0.20;99.90;;;;;;5059775;28;20081;-82
2021/01/08 07:16:55;;;;;;;14.95;9.73;;;-0.20;99.90;;;;;;5052104;28;20088;-83
2021/01/08 07:19:23;;;;;;;17.70;10.73;;;-0.20;99.90;;;;;;5057774;28;20475;-82
2021/01/08 07:21:51;;;;;;;14.43;8.85;;;-0.20;99.90;;;;;;5072948;28;20077;-82
2021/01/08 07:24:38;;;;;;;15.60;9.25;;;-0.30;99.90;;;;;;5053382;28;20077;-82
2021/01/08 07:27:22;;;;;;;15.73;9.80;;;-0.30;99.90;;;;;;5061607;28;20096;-83
2021/01/08 07:29:53;;;;;;;17.50;9.95;;;-0.30;99.90;;;;;;5057710;28;20106;-82
2021/01/08 07:32:30;;;;;;;17.10;9.45;;;-0.30;99.90;;;;;;5051237;28;20579;-82
2021/01/08 07:34:55;;;;;;;16.67;9.18;;;-0.20;99.90;;;;;;5053707;28;20097;-83
2021/01/08 07:37:21;;;;;;;19.52;9.55;;;-0.30;99.90;;;;;;5076122;28;20480;-82
2021/01/08 07:39:46;;;;;;;14.18;8.82;;;-0.30;99.90;;;;;;5050649;28;20446;-83
2021/01/08 07:42:32;;;;;;;15.80;8.80;;;-0.30;99.90;;;;;;5062145;28;20386;-82
2021/01/08 07:44:59;;;;;;;19.50;11.02;;;-0.20;99.90;;;;;;5078425;28;20104;-83
2021/01/08 07:47:28;;;;;;;14.80;8.43;;;-0.10;99.90;;;;;;5083001;28;20164;-83
2021/01/08 07:50:06;;;;;;;15.95;11.13;;;-0.30;99.90;;;;;;5059068;28;20100;-82
2021/01/08 07:52:45;;;;;;;17.35;10.73;;;-0.10;99.90;;;;;;5077981;28;20081;-83
2021/01/08 07:55:13;;;;;;;17.98;11.15;;;0.10;99.90;;;;;;5058904;28;20101;-82
2021/01/08 07:58:03;;;;;;;21.42;13.23;;;0.00;99.90;;;;;;5075854;28;20074;-83
2021/01/08 08:00:31;;;;;;;26.85;16.15;;;0.00;99.90;;;;;;5061055;28;20465;-82
2021/01/08 08:02:57;;;;;;;23.02;13.55;;;-0.10;99.90;;;;;;5076351;28;20069;-83
2021/01/08 08:05:27;;;;;;;20.88;12.35;;;-0.10;99.90;;;;;;5056599;28;20089;-82
2021/01/08 08:07:57;;;;;;;44.42;19.58;;;-0.20;99.90;;;;;;5069841;28;20077;-82
2021/01/08 08:10:24;;;;;;;21.10;12.15;;;-0.20;99.90;;;;;;5061179;28;20649;-83
2021/01/08 08:12:51;;;;;;;20.08;12.45;;;0.00;99.90;;;;;;5056419;28;20421;-84
2021/01/08 08:15:17;;;;;;;19.67;12.10;;;0.20;99.90;;;;;;5057068;28;20107;-84
2021/01/08 08:17:44;;;;;;;23.20;13.77;;;0.10;99.90;;;;;;5055385;28;20097;-82
2021/01/08 08:20:17;;;;;;;22.90;12.57;;;0.10;99.90;;;;;;5062365;28;20094;-83
2021/01/08 08:22:42;;;;;;;17.50;9.43;;;0.20;99.90;;;;;;5070688;28;20093;-83
2021/01/08 08:25:29;;;;;;;22.55;12.10;;;0.40;99.90;;;;;;5053257;28;20104;-84
2021/01/08 08:27:57;;;;;;;21.33;11.15;;;0.40;99.90;;;;;;5058510;28;20081;-82
2021/01/08 08:30:24;;;;;;;15.60;9.65;;;0.50;99.90;;;;;;5055607;28;20109;-83
2021/01/08 08:32:50;;;;;;;17.08;8.80;;;0.30;99.90;;;;;;5060275;28;20088;-83
2021/01/08 08:35:16;;;;;;;16.50;9.38;;;0.20;99.90;;;;;;5056993;28;20245;-83
2021/01/08 08:37:47;;;;;;;14.80;8.32;;;0.20;99.90;;;;;;5058506;28;20589;-84
2021/01/08 08:40:13;;;;;;;15.23;9.05;;;0.20;99.90;;;;;;5056704;28;20077;-83
2021/01/08 08:42:39;;;;;;;15.88;9.35;;;0.30;99.90;;;;;;5054254;28;20110;-83
2021/01/08 08:45:20;;;;;;;14.35;8.18;;;0.20;99.90;;;;;;5053546;28;20097;-83
2021/01/08 08:47:47;;;;;;;13.90;8.30;;;0.20;99.90;;;;;;5061160;28;20369;-83
2021/01/08 08:50:15;;;;;;;15.98;9.60;;;0.30;99.90;;;;;;5063640;28;20213;-83
2021/01/08 08:52:40;;;;;;;13.90;9.02;;;0.10;99.90;;;;;;5061957;28;20175;-84
2021/01/08 08:55:06;;;;;;;17.02;9.65;;;0.20;99.90;;;;;;5063046;28;20680;-82
2021/01/08 08:57:32;;;;;;;19.00;10.95;;;0.30;99.90;;;;;;5061035;28;20077;-83
2021/01/08 08:59:58;;;;;;;15.48;9.13;;;0.40;99.90;;;;;;5061904;28;20073;-83
2021/01/08 09:02:25;;;;;;;17.02;9.77;;;0.50;99.90;;;;;;5063159;28;20073;-82
2021/01/08 09:04:54;;;;;;;22.83;11.63;;;0.60;99.90;;;;;;5060875;28;20574;-83
2021/01/08 09:07:32;;;;;;;17.35;10.15;;;0.20;99.90;;;;;;5057397;28;20131;-83
2021/01/08 09:10:02;;;;;;;17.55;10.10;;;0.00;99.90;;;;;;5082586;28;20069;-83
2021/01/08 09:12:49;;;;;;;19.50;10.18;;;0.00;99.90;;;;;;5068582;28;21670;-83
2021/01/08 09:15:26;;;;;;;17.90;9.50;;;0.00;99.90;;;;;;5058846;28;20583;-84
2021/01/08 09:18:10;;;;;;;14.27;9.77;;;0.10;99.90;;;;;;5063130;28;20073;-83
2021/01/08 09:20:49;;;;;;;19.10;10.80;;;0.10;99.90;;;;;;5061558;28;20077;-83
2021/01/08 09:23:16;;;;;;;17.73;10.02;;;0.10;99.90;;;;;;5060164;28;20325;-84
2021/01/08 09:25:41;;;;;;;18.38;9.88;;;0.10;99.90;;;;;;5061267;28;20113;-82
2021/01/08 09:28:15;;;;;;;16.50;10.15;;;0.10;99.90;;;;;;5063592;28;20093;-82
2021/01/08 09:30:50;;;;;;;18.42;9.80;;;0.10;99.90;;;;;;5054683;28;20168;-82
2021/01/08 09:33:15;;;;;;;17.30;9.13;;;0.10;99.90;;;;;;5060825;28;20103;-82
2021/01/08 09:35:47;;;;;;;14.75;9.10;;;0.20;99.90;;;;;;5060907;28;20085;-82
2021/01/08 09:38:14;;;;;;;16.42;9.68;;;0.30;99.90;;;;;;5062294;28;20065;-83
2021/01/08 09:40:41;;;;;;;18.92;10.35;;;0.30;99.90;;;;;;5059638;28;20099;-83
2021/01/08 09:43:18;;;;;;;17.40;9.48;;;0.30;99.90;;;;;;5049951;28;20165;-84
2021/01/08 09:45:44;;;;;;;19.95;11.18;;;0.40;99.90;;;;;;5052285;28;20093;-83
2021/01/08 09:48:23;;;;;;;17.15;9.98;;;0.40;99.90;;;;;;5058937;28;20072;-83
2021/01/08 09:51:02;;;;;;;18.48;9.65;;;0.40;99.90;;;;;;5062399;28;20528;-83
2021/01/08 09:53:28;;;;;;;17.10;9.50;;;0.40;99.90;;;;;;5053605;28;20097;-83
2021/01/08 09:56:09;;;;;;;17.52;9.50;;;0.50;99.90;;;;;;5061915;28;20089;-83
2021/01/08 09:58:35;;;;;;;16.58;9.30;;;0.50;99.90;;;;;;5060648;28;20077;-82
2021/01/08 10:01:00;;;;;;;14.45;8.15;;;0.50;99.90;;;;;;5068457;28;20126;-83
2021/01/08 10:03:26;;;;;;;16.17;8.70;;;0.60;99.90;;;;;;5067699;28;20574;-83
2021/01/08 10:06:09;;;;;;;13.07;7.72;;;0.60;99.90;;;;;;5060011;28;20097;-83
2021/01/08 10:08:36;;;;;;;12.98;7.97;;;0.70;99.90;;;;;;5067501;28;20490;-83
2021/01/08 10:11:02;;;;;;;16.17;7.13;;;0.80;99.90;;;;;;5062744;28;20076;-83
2021/01/08 10:13:27;;;;;;;20.17;9.27;;;0.70;99.90;;;;;;5068659;28;20654;-83
2021/01/08 10:15:56;;;;;;;18.45;9.82;;;0.70;99.90;;;;;;5087195;28;20093;-84
2021/01/08 10:18:32;;;;;;;16.02;9.02;;;0.80;99.90;;;;;;5063522;28;20073;-84
2021/01/08 10:21:05;;;;;;;14.13;8.27;;;1.00;99.90;;;;;;5083487;28;20171;-83
2021/01/08 10:23:39;;;;;;;13.43;7.97;;;1.00;99.90;;;;;;5063674;28;20088;-84
2021/01/08 10:26:12;;;;;;;12.95;8.32;;;0.80;99.90;;;;;;5070286;28;20105;-83
2021/01/08 10:28:49;;;;;;;15.38;8.88;;;0.70;99.90;;;;;;5062404;28;20084;-83
2021/01/08 10:31:16;;;;;;;13.00;7.78;;;0.60;99.90;;;;;;5065540;28;21080;-83
2021/01/08 10:33:42;;;;;;;14.27;7.82;;;0.70;99.90;;;;;;5085044;28;20089;-84
2021/01/08 10:36:07;;;;;;;14.07;9.05;;;0.90;99.90;;;;;;5069568;28;20089;-83
2021/01/08 10:38:33;;;;;;;16.70;8.85;;;0.90;99.90;;;;;;5066520;28;20404;-84
2021/01/08 10:40:59;;;;;;;20.77;9.23;;;0.80;99.90;;;;;;5064891;28;20443;-84
2021/01/08 10:43:25;;;;;;;15.75;9.30;;;0.90;99.90;;;;;;5086299;28;20073;-83
2021/01/08 10:45:51;;;;;;;12.30;7.57;;;0.80;99.90;;;;;;5082095;28;20278;-83
2021/01/08 10:48:17;;;;;;;12.40;7.38;;;0.90;99.90;;;;;;5068235;28;20107;-83
2021/01/08 10:50:43;;;;;;;14.20;7.78;;;0.90;99.90;;;;;;5062550;28;20770;-82
2021/01/08 10:53:09;;;;;;;12.15;7.63;;;1.10;99.90;;;;;;5061002;28;20084;-84
2021/01/08 10:55:34;;;;;;;19.40;10.68;;;1.10;99.90;;;;;;5062052;28;20552;-84
2021/01/08 10:58:00;;;;;;;26.85;13.65;;;1.30;99.90;;;;;;5053262;28;20093;-83
2021/01/08 11:00:26;;;;;;;19.83;11.20;;;1.40;99.90;;;;;;5056599;28;20073;-83
2021/01/08 11:02:52;;;;;;;23.67;13.20;;;1.40;99.90;;;;;;5058649;28;20103;-82
2021/01/08 11:05:17;;;;;;;14.98;8.52;;;1.40;99.90;;;;;;5057971;28;20365;-83
2021/01/08 11:07:43;;;;;;;20.40;11.32;;;1.40;99.90;;;;;;5055250;28;20084;-83
2021/01/08 11:10:09;;;;;;;12.43;7.47;;;1.30;99.90;;;;;;5053596;28;20081;-83
2021/01/08 11:12:35;;;;;;;13.35;7.43;;;1.20;99.90;;;;;;5059246;28;20078;-85
2021/01/08 11:15:06;;;;;;;15.95;8.55;;;1.10;99.90;;;;;;5077412;28;20097;-82
2021/01/08 11:17:32;;;;;;;18.88;8.55;;;1.00;99.90;;;;;;5061285;28;20171;-83
2021/01/08 11:19:57;;;;;;;21.20;10.38;;;1.10;99.90;;;;;;5064679;28;20096;-82
2021/01/08 11:22:25;;;;;;;17.90;9.20;;;1.10;99.90;;;;;;5062654;28;20076;-83
2021/01/08 11:24:51;;;;;;;18.67;8.38;;;1.20;99.90;;;;;;5058227;28;20107;-83
2021/01/08 11:27:16;;;;;;;15.18;9.45;;;1.30;99.90;;;;;;5056310;28;20076;-82
2021/01/08 11:29:42;;;;;;;15.35;8.70;;;1.30;99.90;;;;;;5057945;28;20127;-82
2021/01/08 11:32:08;;;;;;;18.55;9.18;;;1.20;99.90;;;;;;5052810;28;20105;-82
2021/01/08 11:34:34;;;;;;;19.85;9.52;;;1.10;99.90;;;;;;5055531;28;20097;-84
2021/01/08 11:37:00;;;;;;;16.13;9.60;;;1.20;99.90;;;;;;5061124;28;20165;-82
2021/01/08 11:39:26;;;;;;;16.65;8.80;;;1.20;99.90;;;;;;5052207;28;20544;-83
2021/01/08 11:41:55;;;;;;;16.38;10.18;;;1.20;99.90;;;;;;5061544;28;20447;-83
2021/01/08 11:44:22;;;;;;;13.00;7.70;;;1.40;99.90;;;;;;5058867;28;20114;-83
2021/01/08 11:46:49;;;;;;;13.77;8.40;;;1.40;99.90;;;;;;5071361;22;20146;-73
2021/01/08 11:49:15;;;;;;;13.35;7.57;;;1.40;99.90;;;;;;5089375;28;20663;-74
2021/01/08 11:51:41;;;;;;;19.10;8.52;;;1.40;99.90;;;;;;5061076;28;20069;-74
2021/01/08 11:54:07;;;;;;;12.38;7.95;;;1.30;99.90;;;;;;5087849;28;20092;-74
2021/01/08 11:56:32;;;;;;;17.20;9.43;;;1.30;99.90;;;;;;5086741;28;20065;-75
2021/01/08 11:58:58;;;;;;;13.82;8.77;;;1.40;99.90;;;;;;5090486;28;20096;-74
2021/01/08 12:01:25;;;;;;;17.33;8.82;;;1.50;99.90;;;;;;5089685;28;20065;-74
2021/01/08 12:03:51;;;;;;;15.93;9.50;;;1.50;99.90;;;;;;5088145;28;20088;-74
2021/01/08 12:06:17;;;;;;;18.45;10.05;;;1.50;99.90;;;;;;5082774;28;20524;-75
2021/01/08 12:08:43;;;;;;;25.88;12.63;;;1.30;99.90;;;;;;5089473;28;20077;-74
2021/01/08 12:11:08;;;;;;;30.25;14.48;;;1.50;99.90;;;;;;5086127;28;20919;-74
2021/01/08 12:13:34;;;;;;;26.30;12.80;;;1.40;99.90;;;;;;5083805;28;20092;-74
2021/01/08 12:15:59;;;;;;;35.67;15.75;;;1.60;99.90;;;;;;5067925;28;20118;-73
2021/01/08 12:18:25;;;;;;;13.48;7.95;;;1.50;99.90;;;;;;5088379;28;20104;-72
2021/01/08 12:20:51;;;;;;;12.23;6.93;;;1.50;99.90;;;;;;5088307;28;20079;-72
2021/01/08 12:23:16;;;;;;;13.88;8.32;;;1.50;99.90;;;;;;5086854;28;20081;-74
2021/01/08 12:25:42;;;;;;;12.20;7.45;;;1.60;99.90;;;;;;5070234;28;20073;-74
2021/01/08 12:28:12;;;;;;;11.48;7.20;;;1.70;99.90;;;;;;5086995;28;20077;-73
2021/01/08 12:30:38;;;;;;;15.13;8.55;;;1.70;99.90;;;;;;5089066;28;20156;-73
2021/01/08 12:33:05;;;;;;;14.07;7.18;;;1.80;99.90;;;;;;5088644;28;20142;-74
2021/01/08 12:35:31;;;;;;;11.75;6.90;;;1.90;99.90;;;;;;5082738;28;20067;-74
2021/01/08 12:37:57;;;;;;;13.05;7.28;;;1.90;99.90;;;;;;5088449;28;20143;-73
2021/01/08 12:40:23;;;;;;;13.55;6.65;;;1.90;99.90;;;;;;5069445;28;20164;-73
2021/01/08 12:42:50;;;;;;;14.02;7.85;;;2.00;99.90;;;;;;5081985;28;20131;-74